sensor_id;sensor_type;location;lat;lon;timestamp;P1;durP1;ratioP1;P2;durP2;ratioP2
84345;SDS011;74709;53.128;18.020;2024-03-02T00:01:01;52.10;;;25.70;;
84345;SDS011;74709;53.128;18.020;2024-03-02T00:02:19;50.30;;;24.60;;
84345;SDS011;74709;53.128;18.020;2024-03-02T00:03:20;56.90;;;25.70;;
84345;SDS011;74709;53.128;18.020;2024-03-02T00:04:22;54.70;;;24.50;;
84345;SDS011;74709;53.128;18.020;2024-03-02T00:05:23;51.30;;;22.90;;
84345;SDS011;74709;53.128;18.020;2024-03-02T00:06:24;51.30;;;24.40;;
84345;SDS011;74709;53.128;18.020;2024-03-02T00:07:26;58.10;;;25.90;;
84345;SDS011;74709;53.128;18.020;2024-03-02T00:08:27;55.70;;;26.20;;
84345;SDS011;74709;53.128;18.020;2024-03-02T00:09:29;51.40;;;23.20;;
84345;SDS011;74709;53.128;18.020;2024-03-02T00:10:40;56.10;;;25.80;;
84345;SDS011;74709;53.128;18.020;2024-03-02T00:11:41;54.20;;;26.10;;
84345;SDS011;74709;53.128;18.020;2024-03-02T00:12:43;59.30;;;25.30;;
84345;SDS011;74709;53.128;18.020;2024-03-02T00:13:48;40.10;;;19.90;;
84345;SDS011;74709;53.128;18.020;2024-03-02T00:14:49;59.60;;;27.30;;
84345;SDS011;74709;53.128;18.020;2024-03-02T00:15:52;60.60;;;27.40;;
84345;SDS011;74709;53.128;18.020;2024-03-02T00:16:55;59.70;;;26.30;;
84345;SDS011;74709;53.128;18.020;2024-03-02T00:17:57;61.10;;;28.70;;
84345;SDS011;74709;53.128;18.020;2024-03-02T00:19:02;53.80;;;24.20;;
84345;SDS011;74709;53.128;18.020;2024-03-02T00:20:06;50.90;;;22.70;;
84345;SDS011;74709;53.128;18.020;2024-03-02T00:21:10;56.80;;;26.50;;
84345;SDS011;74709;53.128;18.020;2024-03-02T00:22:12;56.80;;;26.70;;
84345;SDS011;74709;53.128;18.020;2024-03-02T00:23:14;44.80;;;20.70;;
84345;SDS011;74709;53.128;18.020;2024-03-02T00:25:20;56.90;;;25.60;;
84345;SDS011;74709;53.128;18.020;2024-03-02T00:26:22;51.20;;;24.60;;
84345;SDS011;74709;53.128;18.020;2024-03-02T00:27:23;58.00;;;24.30;;
84345;SDS011;74709;53.128;18.020;2024-03-02T00:28:33;57.10;;;27.40;;
84345;SDS011;74709;53.128;18.020;2024-03-02T00:29:35;59.10;;;25.20;;
84345;SDS011;74709;53.128;18.020;2024-03-02T00:30:54;55.60;;;25.80;;
84345;SDS011;74709;53.128;18.020;2024-03-02T00:33:00;55.80;;;24.70;;
84345;SDS011;74709;53.128;18.020;2024-03-02T00:34:02;57.00;;;26.90;;
84345;SDS011;74709;53.128;18.020;2024-03-02T00:35:05;59.60;;;27.20;;
84345;SDS011;74709;53.128;18.020;2024-03-02T00:36:06;57.30;;;26.40;;
84345;SDS011;74709;53.128;18.020;2024-03-02T00:37:09;53.20;;;26.80;;
84345;SDS011;74709;53.128;18.020;2024-03-02T00:38:10;54.60;;;25.00;;
84345;SDS011;74709;53.128;18.020;2024-03-02T00:39:12;63.10;;;27.20;;
84345;SDS011;74709;53.128;18.020;2024-03-02T00:40:14;60.10;;;27.20;;
84345;SDS011;74709;53.128;18.020;2024-03-02T00:41:25;58.10;;;26.60;;
84345;SDS011;74709;53.128;18.020;2024-03-02T00:42:28;63.00;;;27.40;;
84345;SDS011;74709;53.128;18.020;2024-03-02T00:43:42;59.70;;;27.00;;
84345;SDS011;74709;53.128;18.020;2024-03-02T00:44:45;56.30;;;24.70;;
84345;SDS011;74709;53.128;18.020;2024-03-02T00:45:49;55.40;;;25.50;;
84345;SDS011;74709;53.128;18.020;2024-03-02T00:46:50;61.80;;;27.80;;
84345;SDS011;74709;53.128;18.020;2024-03-02T00:47:51;57.40;;;24.90;;
84345;SDS011;74709;53.128;18.020;2024-03-02T00:48:54;60.90;;;27.00;;
84345;SDS011;74709;53.128;18.020;2024-03-02T00:49:57;57.70;;;26.10;;
84345;SDS011;74709;53.128;18.020;2024-03-02T00:50:59;60.20;;;27.10;;
84345;SDS011;74709;53.128;18.020;2024-03-02T00:52:00;59.50;;;27.40;;
84345;SDS011;74709;53.128;18.020;2024-03-02T00:53:02;57.60;;;24.00;;
84345;SDS011;74709;53.128;18.020;2024-03-02T00:54:04;54.50;;;25.50;;
84345;SDS011;74709;53.128;18.020;2024-03-02T00:55:07;59.10;;;26.80;;
84345;SDS011;74709;53.128;18.020;2024-03-02T00:56:09;63.70;;;26.80;;
84345;SDS011;74709;53.128;18.020;2024-03-02T00:57:12;60.50;;;25.70;;
84345;SDS011;74709;53.128;18.020;2024-03-02T00:58:14;63.80;;;27.70;;
84345;SDS011;74709;53.128;18.020;2024-03-02T00:59:15;61.50;;;28.20;;
84345;SDS011;74709;53.128;18.020;2024-03-02T01:00:17;54.10;;;26.50;;
84345;SDS011;74709;53.128;18.020;2024-03-02T01:01:19;65.90;;;29.80;;
84345;SDS011;74709;53.128;18.020;2024-03-02T01:02:20;66.80;;;29.90;;
84345;SDS011;74709;53.128;18.020;2024-03-02T01:03:22;54.40;;;25.40;;
84345;SDS011;74709;53.128;18.020;2024-03-02T01:04:24;70.10;;;30.80;;
84345;SDS011;74709;53.128;18.020;2024-03-02T01:05:25;55.50;;;24.90;;
84345;SDS011;74709;53.128;18.020;2024-03-02T01:06:26;61.30;;;27.40;;
84345;SDS011;74709;53.128;18.020;2024-03-02T01:07:28;57.60;;;25.50;;
84345;SDS011;74709;53.128;18.020;2024-03-02T01:08:30;58.80;;;27.10;;
84345;SDS011;74709;53.128;18.020;2024-03-02T01:09:31;61.60;;;26.70;;
84345;SDS011;74709;53.128;18.020;2024-03-02T01:10:33;55.00;;;25.00;;
84345;SDS011;74709;53.128;18.020;2024-03-02T01:11:34;56.30;;;25.10;;
84345;SDS011;74709;53.128;18.020;2024-03-02T01:12:35;58.30;;;26.60;;
84345;SDS011;74709;53.128;18.020;2024-03-02T01:13:37;59.30;;;27.90;;
84345;SDS011;74709;53.128;18.020;2024-03-02T01:14:38;57.60;;;27.60;;
84345;SDS011;74709;53.128;18.020;2024-03-02T01:15:40;60.00;;;27.40;;
84345;SDS011;74709;53.128;18.020;2024-03-02T01:16:41;54.50;;;24.80;;
84345;SDS011;74709;53.128;18.020;2024-03-02T01:17:42;53.10;;;24.30;;
84345;SDS011;74709;53.128;18.020;2024-03-02T01:18:44;60.60;;;26.30;;
84345;SDS011;74709;53.128;18.020;2024-03-02T01:19:46;58.30;;;25.90;;
84345;SDS011;74709;53.128;18.020;2024-03-02T01:20:47;53.50;;;23.80;;
84345;SDS011;74709;53.128;18.020;2024-03-02T01:21:49;55.70;;;25.10;;
84345;SDS011;74709;53.128;18.020;2024-03-02T01:22:51;52.20;;;24.70;;
84345;SDS011;74709;53.128;18.020;2024-03-02T01:23:53;52.70;;;25.10;;
84345;SDS011;74709;53.128;18.020;2024-03-02T01:24:54;59.20;;;25.80;;
84345;SDS011;74709;53.128;18.020;2024-03-02T01:25:56;55.70;;;25.30;;
84345;SDS011;74709;53.128;18.020;2024-03-02T01:26:57;65.60;;;28.10;;
84345;SDS011;74709;53.128;18.020;2024-03-02T01:27:59;55.40;;;27.80;;
84345;SDS011;74709;53.128;18.020;2024-03-02T01:29:00;54.70;;;23.90;;
84345;SDS011;74709;53.128;18.020;2024-03-02T01:30:02;55.80;;;26.60;;
84345;SDS011;74709;53.128;18.020;2024-03-02T01:31:03;60.50;;;26.70;;
84345;SDS011;74709;53.128;18.020;2024-03-02T01:32:05;58.50;;;27.20;;
84345;SDS011;74709;53.128;18.020;2024-03-02T01:33:07;56.40;;;26.20;;
84345;SDS011;74709;53.128;18.020;2024-03-02T01:34:08;55.70;;;25.40;;
84345;SDS011;74709;53.128;18.020;2024-03-02T01:35:10;59.70;;;26.90;;
84345;SDS011;74709;53.128;18.020;2024-03-02T01:36:13;57.20;;;24.60;;
84345;SDS011;74709;53.128;18.020;2024-03-02T01:37:14;60.10;;;27.40;;
84345;SDS011;74709;53.128;18.020;2024-03-02T01:38:16;55.60;;;27.50;;
84345;SDS011;74709;53.128;18.020;2024-03-02T01:39:17;59.10;;;25.80;;
84345;SDS011;74709;53.128;18.020;2024-03-02T01:40:19;57.00;;;25.00;;
84345;SDS011;74709;53.128;18.020;2024-03-02T01:41:21;52.30;;;23.50;;
84345;SDS011;74709;53.128;18.020;2024-03-02T01:42:23;53.00;;;22.10;;
84345;SDS011;74709;53.128;18.020;2024-03-02T01:43:25;57.60;;;26.70;;
84345;SDS011;74709;53.128;18.020;2024-03-02T01:44:27;48.00;;;21.00;;
84345;SDS011;74709;53.128;18.020;2024-03-02T01:45:28;56.70;;;25.70;;
84345;SDS011;74709;53.128;18.020;2024-03-02T01:46:29;64.90;;;27.10;;
84345;SDS011;74709;53.128;18.020;2024-03-02T01:47:31;54.90;;;24.80;;
84345;SDS011;74709;53.128;18.020;2024-03-02T01:48:33;56.70;;;26.20;;
84345;SDS011;74709;53.128;18.020;2024-03-02T01:49:35;58.80;;;26.20;;
84345;SDS011;74709;53.128;18.020;2024-03-02T01:50:36;60.50;;;25.60;;
84345;SDS011;74709;53.128;18.020;2024-03-02T01:51:38;54.40;;;24.70;;
84345;SDS011;74709;53.128;18.020;2024-03-02T01:52:39;57.60;;;26.20;;
84345;SDS011;74709;53.128;18.020;2024-03-02T01:53:41;61.10;;;27.20;;
84345;SDS011;74709;53.128;18.020;2024-03-02T01:54:42;52.40;;;24.20;;
84345;SDS011;74709;53.128;18.020;2024-03-02T01:55:43;57.70;;;24.40;;
84345;SDS011;74709;53.128;18.020;2024-03-02T01:56:45;56.50;;;26.80;;
84345;SDS011;74709;53.128;18.020;2024-03-02T01:57:47;55.00;;;24.90;;
84345;SDS011;74709;53.128;18.020;2024-03-02T01:58:49;63.10;;;28.20;;
84345;SDS011;74709;53.128;18.020;2024-03-02T01:59:51;64.60;;;28.50;;
84345;SDS011;74709;53.128;18.020;2024-03-02T02:00:52;55.40;;;25.50;;
84345;SDS011;74709;53.128;18.020;2024-03-02T02:01:54;55.30;;;25.80;;
84345;SDS011;74709;53.128;18.020;2024-03-02T02:02:55;54.50;;;25.80;;
84345;SDS011;74709;53.128;18.020;2024-03-02T02:03:57;59.90;;;27.20;;
84345;SDS011;74709;53.128;18.020;2024-03-02T02:04:59;55.70;;;26.50;;
84345;SDS011;74709;53.128;18.020;2024-03-02T02:06:00;52.90;;;26.00;;
84345;SDS011;74709;53.128;18.020;2024-03-02T02:07:02;53.90;;;24.00;;
84345;SDS011;74709;53.128;18.020;2024-03-02T02:08:04;63.70;;;28.40;;
84345;SDS011;74709;53.128;18.020;2024-03-02T02:09:06;50.50;;;24.90;;
84345;SDS011;74709;53.128;18.020;2024-03-02T02:10:12;55.20;;;24.30;;
84345;SDS011;74709;53.128;18.020;2024-03-02T02:11:16;54.90;;;27.30;;
84345;SDS011;74709;53.128;18.020;2024-03-02T02:12:18;57.20;;;27.20;;
84345;SDS011;74709;53.128;18.020;2024-03-02T02:13:19;57.80;;;25.70;;
84345;SDS011;74709;53.128;18.020;2024-03-02T02:14:21;54.90;;;25.50;;
84345;SDS011;74709;53.128;18.020;2024-03-02T02:16:25;59.60;;;28.50;;
84345;SDS011;74709;53.128;18.020;2024-03-02T02:17:26;59.50;;;27.10;;
84345;SDS011;74709;53.128;18.020;2024-03-02T02:18:27;63.10;;;27.90;;
84345;SDS011;74709;53.128;18.020;2024-03-02T02:19:29;52.00;;;25.30;;
84345;SDS011;74709;53.128;18.020;2024-03-02T02:20:30;60.40;;;25.90;;
84345;SDS011;74709;53.128;18.020;2024-03-02T02:21:31;62.50;;;25.60;;
84345;SDS011;74709;53.128;18.020;2024-03-02T02:22:33;63.10;;;29.70;;
84345;SDS011;74709;53.128;18.020;2024-03-02T02:25:03;54.70;;;23.90;;
84345;SDS011;74709;53.128;18.020;2024-03-02T02:26:05;58.20;;;25.80;;
84345;SDS011;74709;53.128;18.020;2024-03-02T02:27:06;52.00;;;24.70;;
84345;SDS011;74709;53.128;18.020;2024-03-02T02:28:08;58.10;;;25.70;;
84345;SDS011;74709;53.128;18.020;2024-03-02T02:29:10;56.80;;;25.80;;
84345;SDS011;74709;53.128;18.020;2024-03-02T02:30:11;58.20;;;26.60;;
84345;SDS011;74709;53.128;18.020;2024-03-02T02:31:13;64.90;;;27.70;;
84345;SDS011;74709;53.128;18.020;2024-03-02T02:32:15;61.60;;;26.80;;
84345;SDS011;74709;53.128;18.020;2024-03-02T02:33:16;59.70;;;25.20;;
84345;SDS011;74709;53.128;18.020;2024-03-02T02:34:18;56.90;;;24.90;;
84345;SDS011;74709;53.128;18.020;2024-03-02T02:35:19;50.40;;;23.60;;
84345;SDS011;74709;53.128;18.020;2024-03-02T02:36:21;52.40;;;24.20;;
84345;SDS011;74709;53.128;18.020;2024-03-02T02:37:22;54.20;;;25.50;;
84345;SDS011;74709;53.128;18.020;2024-03-02T02:38:24;54.70;;;25.70;;
84345;SDS011;74709;53.128;18.020;2024-03-02T02:39:25;60.10;;;27.50;;
84345;SDS011;74709;53.128;18.020;2024-03-02T02:40:26;42.20;;;19.40;;
84345;SDS011;74709;53.128;18.020;2024-03-02T02:42:31;57.40;;;25.50;;
84345;SDS011;74709;53.128;18.020;2024-03-02T02:43:33;56.80;;;25.50;;
84345;SDS011;74709;53.128;18.020;2024-03-02T02:44:34;52.60;;;23.90;;
84345;SDS011;74709;53.128;18.020;2024-03-02T02:45:36;50.80;;;24.10;;
84345;SDS011;74709;53.128;18.020;2024-03-02T02:46:37;52.10;;;24.80;;
84345;SDS011;74709;53.128;18.020;2024-03-02T02:47:40;51.50;;;24.70;;
84345;SDS011;74709;53.128;18.020;2024-03-02T02:48:42;47.00;;;21.50;;
84345;SDS011;74709;53.128;18.020;2024-03-02T02:49:43;60.30;;;26.60;;
84345;SDS011;74709;53.128;18.020;2024-03-02T02:50:45;47.70;;;22.80;;
84345;SDS011;74709;53.128;18.020;2024-03-02T02:51:46;57.80;;;24.90;;
84345;SDS011;74709;53.128;18.020;2024-03-02T02:52:47;58.30;;;25.50;;
84345;SDS011;74709;53.128;18.020;2024-03-02T02:53:49;55.10;;;24.20;;
84345;SDS011;74709;53.128;18.020;2024-03-02T02:54:50;53.00;;;25.10;;
84345;SDS011;74709;53.128;18.020;2024-03-02T02:55:52;61.50;;;27.50;;
84345;SDS011;74709;53.128;18.020;2024-03-02T02:56:54;55.60;;;25.30;;
84345;SDS011;74709;53.128;18.020;2024-03-02T02:57:55;51.30;;;23.70;;
84345;SDS011;74709;53.128;18.020;2024-03-02T02:58:56;50.00;;;23.50;;
84345;SDS011;74709;53.128;18.020;2024-03-02T02:59:58;49.40;;;24.30;;
84345;SDS011;74709;53.128;18.020;2024-03-02T03:00:59;52.30;;;23.10;;
84345;SDS011;74709;53.128;18.020;2024-03-02T03:02:00;57.50;;;26.70;;
84345;SDS011;74709;53.128;18.020;2024-03-02T03:03:02;53.00;;;24.90;;
84345;SDS011;74709;53.128;18.020;2024-03-02T03:04:03;56.50;;;25.60;;
84345;SDS011;74709;53.128;18.020;2024-03-02T03:05:05;48.10;;;22.30;;
84345;SDS011;74709;53.128;18.020;2024-03-02T03:06:07;48.30;;;22.30;;
84345;SDS011;74709;53.128;18.020;2024-03-02T03:07:09;53.00;;;23.70;;
84345;SDS011;74709;53.128;18.020;2024-03-02T03:08:10;52.10;;;22.50;;
84345;SDS011;74709;53.128;18.020;2024-03-02T03:09:11;52.20;;;23.70;;
84345;SDS011;74709;53.128;18.020;2024-03-02T03:10:13;53.10;;;24.30;;
84345;SDS011;74709;53.128;18.020;2024-03-02T03:11:14;51.30;;;23.10;;
84345;SDS011;74709;53.128;18.020;2024-03-02T03:12:16;49.00;;;21.80;;
84345;SDS011;74709;53.128;18.020;2024-03-02T03:13:17;47.10;;;21.40;;
84345;SDS011;74709;53.128;18.020;2024-03-02T03:14:18;48.50;;;21.90;;
84345;SDS011;74709;53.128;18.020;2024-03-02T03:15:20;42.80;;;20.30;;
84345;SDS011;74709;53.128;18.020;2024-03-02T03:16:22;50.90;;;23.90;;
84345;SDS011;74709;53.128;18.020;2024-03-02T03:17:23;53.50;;;22.70;;
84345;SDS011;74709;53.128;18.020;2024-03-02T03:18:25;46.40;;;20.70;;
84345;SDS011;74709;53.128;18.020;2024-03-02T03:19:26;51.50;;;23.00;;
84345;SDS011;74709;53.128;18.020;2024-03-02T03:20:28;49.80;;;21.60;;
84345;SDS011;74709;53.128;18.020;2024-03-02T03:21:29;49.10;;;21.50;;
84345;SDS011;74709;53.128;18.020;2024-03-02T03:22:30;47.30;;;21.00;;
84345;SDS011;74709;53.128;18.020;2024-03-02T03:23:33;44.80;;;21.40;;
84345;SDS011;74709;53.128;18.020;2024-03-02T03:24:34;50.00;;;23.20;;
84345;SDS011;74709;53.128;18.020;2024-03-02T03:25:39;53.10;;;25.30;;
84345;SDS011;74709;53.128;18.020;2024-03-02T03:26:41;50.20;;;22.90;;
84345;SDS011;74709;53.128;18.020;2024-03-02T03:27:42;51.60;;;23.00;;
84345;SDS011;74709;53.128;18.020;2024-03-02T03:28:43;49.90;;;22.50;;
84345;SDS011;74709;53.128;18.020;2024-03-02T03:29:45;46.50;;;21.70;;
84345;SDS011;74709;53.128;18.020;2024-03-02T03:30:47;52.00;;;23.70;;
84345;SDS011;74709;53.128;18.020;2024-03-02T03:31:48;51.90;;;25.90;;
84345;SDS011;74709;53.128;18.020;2024-03-02T03:32:49;48.10;;;23.40;;
84345;SDS011;74709;53.128;18.020;2024-03-02T03:33:51;45.50;;;22.30;;
84345;SDS011;74709;53.128;18.020;2024-03-02T03:34:52;45.30;;;22.20;;
84345;SDS011;74709;53.128;18.020;2024-03-02T03:35:53;53.90;;;22.80;;
84345;SDS011;74709;53.128;18.020;2024-03-02T03:36:55;46.10;;;21.00;;
84345;SDS011;74709;53.128;18.020;2024-03-02T03:37:56;48.40;;;22.20;;
84345;SDS011;74709;53.128;18.020;2024-03-02T03:38:58;43.60;;;20.80;;
84345;SDS011;74709;53.128;18.020;2024-03-02T03:39:59;47.20;;;24.50;;
84345;SDS011;74709;53.128;18.020;2024-03-02T03:41:02;46.60;;;21.10;;
84345;SDS011;74709;53.128;18.020;2024-03-02T03:42:03;47.50;;;22.30;;
84345;SDS011;74709;53.128;18.020;2024-03-02T03:43:05;46.30;;;22.70;;
84345;SDS011;74709;53.128;18.020;2024-03-02T03:44:07;49.10;;;22.20;;
84345;SDS011;74709;53.128;18.020;2024-03-02T03:45:08;54.30;;;24.40;;
84345;SDS011;74709;53.128;18.020;2024-03-02T03:46:10;43.20;;;20.50;;
84345;SDS011;74709;53.128;18.020;2024-03-02T03:47:11;43.50;;;20.60;;
84345;SDS011;74709;53.128;18.020;2024-03-02T03:48:13;43.70;;;21.90;;
84345;SDS011;74709;53.128;18.020;2024-03-02T03:49:14;42.40;;;20.10;;
84345;SDS011;74709;53.128;18.020;2024-03-02T03:50:16;46.60;;;19.90;;
84345;SDS011;74709;53.128;18.020;2024-03-02T03:51:17;46.50;;;19.40;;
84345;SDS011;74709;53.128;18.020;2024-03-02T03:52:19;39.20;;;18.10;;
84345;SDS011;74709;53.128;18.020;2024-03-02T03:53:20;38.90;;;19.50;;
84345;SDS011;74709;53.128;18.020;2024-03-02T03:54:21;39.80;;;19.60;;
84345;SDS011;74709;53.128;18.020;2024-03-02T03:55:23;43.70;;;20.30;;
84345;SDS011;74709;53.128;18.020;2024-03-02T03:56:24;39.90;;;20.80;;
84345;SDS011;74709;53.128;18.020;2024-03-02T03:57:26;41.70;;;21.80;;
84345;SDS011;74709;53.128;18.020;2024-03-02T03:58:28;39.90;;;21.00;;
84345;SDS011;74709;53.128;18.020;2024-03-02T03:59:29;38.30;;;19.30;;
84345;SDS011;74709;53.128;18.020;2024-03-02T04:00:31;42.70;;;20.40;;
84345;SDS011;74709;53.128;18.020;2024-03-02T04:01:32;42.70;;;21.70;;
84345;SDS011;74709;53.128;18.020;2024-03-02T04:02:34;40.20;;;21.00;;
84345;SDS011;74709;53.128;18.020;2024-03-02T04:03:37;40.90;;;19.70;;
84345;SDS011;74709;53.128;18.020;2024-03-02T04:04:39;38.50;;;17.60;;
84345;SDS011;74709;53.128;18.020;2024-03-02T04:05:40;41.00;;;20.00;;
84345;SDS011;74709;53.128;18.020;2024-03-02T04:06:42;38.80;;;20.50;;
84345;SDS011;74709;53.128;18.020;2024-03-02T04:07:43;34.70;;;17.00;;
84345;SDS011;74709;53.128;18.020;2024-03-02T04:08:45;36.70;;;18.60;;
84345;SDS011;74709;53.128;18.020;2024-03-02T04:09:46;37.10;;;20.00;;
84345;SDS011;74709;53.128;18.020;2024-03-02T04:10:48;36.90;;;20.20;;
84345;SDS011;74709;53.128;18.020;2024-03-02T04:11:49;38.90;;;19.80;;
84345;SDS011;74709;53.128;18.020;2024-03-02T04:12:51;33.50;;;18.40;;
84345;SDS011;74709;53.128;18.020;2024-03-02T04:13:52;34.60;;;17.70;;
84345;SDS011;74709;53.128;18.020;2024-03-02T04:14:54;35.20;;;17.90;;
84345;SDS011;74709;53.128;18.020;2024-03-02T04:15:55;36.00;;;18.60;;
84345;SDS011;74709;53.128;18.020;2024-03-02T04:16:56;31.70;;;17.40;;
84345;SDS011;74709;53.128;18.020;2024-03-02T04:17:58;32.90;;;17.40;;
84345;SDS011;74709;53.128;18.020;2024-03-02T04:18:59;29.50;;;16.90;;
84345;SDS011;74709;53.128;18.020;2024-03-02T04:20:00;35.70;;;18.60;;
84345;SDS011;74709;53.128;18.020;2024-03-02T04:21:02;31.10;;;15.70;;
84345;SDS011;74709;53.128;18.020;2024-03-02T04:22:04;33.80;;;17.60;;
84345;SDS011;74709;53.128;18.020;2024-03-02T04:23:05;31.10;;;16.00;;
84345;SDS011;74709;53.128;18.020;2024-03-02T04:24:06;35.90;;;17.30;;
84345;SDS011;74709;53.128;18.020;2024-03-02T04:25:08;32.90;;;18.40;;
84345;SDS011;74709;53.128;18.020;2024-03-02T04:26:10;37.80;;;19.20;;
84345;SDS011;74709;53.128;18.020;2024-03-02T04:27:11;28.90;;;15.60;;
84345;SDS011;74709;53.128;18.020;2024-03-02T04:28:13;34.80;;;18.60;;
84345;SDS011;74709;53.128;18.020;2024-03-02T04:29:14;31.00;;;17.60;;
84345;SDS011;74709;53.128;18.020;2024-03-02T04:30:16;33.10;;;17.60;;
84345;SDS011;74709;53.128;18.020;2024-03-02T04:31:17;35.00;;;17.80;;
84345;SDS011;74709;53.128;18.020;2024-03-02T04:32:18;32.80;;;16.50;;
84345;SDS011;74709;53.128;18.020;2024-03-02T04:33:20;34.90;;;17.70;;
84345;SDS011;74709;53.128;18.020;2024-03-02T04:34:22;34.20;;;17.90;;
84345;SDS011;74709;53.128;18.020;2024-03-02T04:35:23;37.00;;;18.10;;
84345;SDS011;74709;53.128;18.020;2024-03-02T04:36:26;36.30;;;19.30;;
84345;SDS011;74709;53.128;18.020;2024-03-02T04:37:28;32.00;;;16.60;;
84345;SDS011;74709;53.128;18.020;2024-03-02T04:38:29;33.30;;;17.90;;
84345;SDS011;74709;53.128;18.020;2024-03-02T04:39:31;34.30;;;18.40;;
84345;SDS011;74709;53.128;18.020;2024-03-02T04:40:33;30.70;;;16.80;;
84345;SDS011;74709;53.128;18.020;2024-03-02T04:41:34;28.60;;;15.70;;
84345;SDS011;74709;53.128;18.020;2024-03-02T04:42:35;30.70;;;17.00;;
84345;SDS011;74709;53.128;18.020;2024-03-02T04:43:37;32.10;;;16.30;;
84345;SDS011;74709;53.128;18.020;2024-03-02T04:44:38;28.20;;;15.90;;
84345;SDS011;74709;53.128;18.020;2024-03-02T04:45:40;30.70;;;17.30;;
84345;SDS011;74709;53.128;18.020;2024-03-02T04:46:41;34.70;;;18.50;;
84345;SDS011;74709;53.128;18.020;2024-03-02T04:47:42;34.60;;;17.90;;
84345;SDS011;74709;53.128;18.020;2024-03-02T04:48:44;31.60;;;17.70;;
84345;SDS011;74709;53.128;18.020;2024-03-02T04:49:45;34.10;;;18.80;;
84345;SDS011;74709;53.128;18.020;2024-03-02T04:50:47;30.60;;;17.10;;
84345;SDS011;74709;53.128;18.020;2024-03-02T04:51:48;30.70;;;17.40;;
84345;SDS011;74709;53.128;18.020;2024-03-02T04:52:50;23.70;;;13.00;;
84345;SDS011;74709;53.128;18.020;2024-03-02T04:53:51;32.30;;;17.00;;
84345;SDS011;74709;53.128;18.020;2024-03-02T04:54:53;34.00;;;17.10;;
84345;SDS011;74709;53.128;18.020;2024-03-02T04:56:29;32.20;;;16.70;;
84345;SDS011;74709;53.128;18.020;2024-03-02T04:57:34;32.80;;;15.60;;
84345;SDS011;74709;53.128;18.020;2024-03-02T04:58:35;35.30;;;16.60;;
84345;SDS011;74709;53.128;18.020;2024-03-02T04:59:36;33.30;;;17.70;;
84345;SDS011;74709;53.128;18.020;2024-03-02T05:00:38;30.60;;;18.00;;
84345;SDS011;74709;53.128;18.020;2024-03-02T05:01:39;33.50;;;18.30;;
84345;SDS011;74709;53.128;18.020;2024-03-02T05:02:40;25.10;;;14.00;;
84345;SDS011;74709;53.128;18.020;2024-03-02T05:03:42;28.60;;;16.00;;
84345;SDS011;74709;53.128;18.020;2024-03-02T05:04:43;30.70;;;16.60;;
84345;SDS011;74709;53.128;18.020;2024-03-02T05:05:45;30.40;;;15.40;;
84345;SDS011;74709;53.128;18.020;2024-03-02T05:06:46;36.00;;;19.00;;
84345;SDS011;74709;53.128;18.020;2024-03-02T05:07:53;35.40;;;18.50;;
84345;SDS011;74709;53.128;18.020;2024-03-02T05:08:55;32.40;;;16.60;;
84345;SDS011;74709;53.128;18.020;2024-03-02T05:09:56;29.30;;;16.00;;
84345;SDS011;74709;53.128;18.020;2024-03-02T05:10:57;32.40;;;17.60;;
84345;SDS011;74709;53.128;18.020;2024-03-02T05:12:19;32.10;;;16.40;;
84345;SDS011;74709;53.128;18.020;2024-03-02T05:13:39;30.80;;;16.00;;
84345;SDS011;74709;53.128;18.020;2024-03-02T05:14:40;35.00;;;17.40;;
84345;SDS011;74709;53.128;18.020;2024-03-02T05:15:41;34.00;;;16.90;;
84345;SDS011;74709;53.128;18.020;2024-03-02T05:16:44;33.20;;;15.70;;
84345;SDS011;74709;53.128;18.020;2024-03-02T05:17:45;30.60;;;16.60;;
84345;SDS011;74709;53.128;18.020;2024-03-02T05:18:47;31.80;;;17.30;;
84345;SDS011;74709;53.128;18.020;2024-03-02T05:19:48;30.40;;;17.30;;
84345;SDS011;74709;53.128;18.020;2024-03-02T05:20:50;30.80;;;16.80;;
84345;SDS011;74709;53.128;18.020;2024-03-02T05:21:52;29.50;;;16.20;;
84345;SDS011;74709;53.128;18.020;2024-03-02T05:22:54;30.20;;;17.80;;
84345;SDS011;74709;53.128;18.020;2024-03-02T05:23:55;27.90;;;15.50;;
84345;SDS011;74709;53.128;18.020;2024-03-02T05:24:58;32.90;;;18.50;;
84345;SDS011;74709;53.128;18.020;2024-03-02T05:26:04;33.20;;;16.80;;
84345;SDS011;74709;53.128;18.020;2024-03-02T05:27:08;35.10;;;18.30;;
84345;SDS011;74709;53.128;18.020;2024-03-02T05:28:09;34.10;;;16.50;;
84345;SDS011;74709;53.128;18.020;2024-03-02T05:29:16;29.80;;;16.00;;
84345;SDS011;74709;53.128;18.020;2024-03-02T05:30:19;36.90;;;17.60;;
84345;SDS011;74709;53.128;18.020;2024-03-02T05:31:20;30.80;;;17.40;;
84345;SDS011;74709;53.128;18.020;2024-03-02T05:32:21;29.90;;;15.80;;
84345;SDS011;74709;53.128;18.020;2024-03-02T05:33:23;35.20;;;18.20;;
84345;SDS011;74709;53.128;18.020;2024-03-02T05:34:24;33.90;;;17.80;;
84345;SDS011;74709;53.128;18.020;2024-03-02T05:35:26;37.40;;;18.30;;
84345;SDS011;74709;53.128;18.020;2024-03-02T05:36:27;36.80;;;19.80;;
84345;SDS011;74709;53.128;18.020;2024-03-02T05:37:28;32.50;;;17.90;;
84345;SDS011;74709;53.128;18.020;2024-03-02T05:38:30;32.90;;;17.80;;
84345;SDS011;74709;53.128;18.020;2024-03-02T05:39:31;33.20;;;17.40;;
84345;SDS011;74709;53.128;18.020;2024-03-02T05:40:32;29.90;;;15.20;;
84345;SDS011;74709;53.128;18.020;2024-03-02T05:41:35;39.70;;;19.40;;
84345;SDS011;74709;53.128;18.020;2024-03-02T05:42:37;35.80;;;18.10;;
84345;SDS011;74709;53.128;18.020;2024-03-02T05:43:38;32.70;;;17.60;;
84345;SDS011;74709;53.128;18.020;2024-03-02T05:44:39;31.00;;;17.30;;
84345;SDS011;74709;53.128;18.020;2024-03-02T05:45:41;30.50;;;15.70;;
84345;SDS011;74709;53.128;18.020;2024-03-02T05:46:42;35.20;;;17.40;;
84345;SDS011;74709;53.128;18.020;2024-03-02T05:47:43;35.20;;;17.40;;
84345;SDS011;74709;53.128;18.020;2024-03-02T05:48:45;32.60;;;18.50;;
84345;SDS011;74709;53.128;18.020;2024-03-02T05:49:46;31.50;;;16.50;;
84345;SDS011;74709;53.128;18.020;2024-03-02T05:50:48;34.20;;;17.20;;
84345;SDS011;74709;53.128;18.020;2024-03-02T05:51:50;36.20;;;19.60;;
84345;SDS011;74709;53.128;18.020;2024-03-02T05:52:52;31.00;;;18.00;;
84345;SDS011;74709;53.128;18.020;2024-03-02T05:53:53;34.50;;;17.90;;
84345;SDS011;74709;53.128;18.020;2024-03-02T05:54:55;36.20;;;19.60;;
84345;SDS011;74709;53.128;18.020;2024-03-02T05:55:56;40.20;;;19.00;;
84345;SDS011;74709;53.128;18.020;2024-03-02T05:56:57;33.00;;;17.70;;
84345;SDS011;74709;53.128;18.020;2024-03-02T05:58:17;31.20;;;17.40;;
84345;SDS011;74709;53.128;18.020;2024-03-02T05:59:32;32.90;;;18.80;;
84345;SDS011;74709;53.128;18.020;2024-03-02T06:00:33;31.40;;;17.90;;
84345;SDS011;74709;53.128;18.020;2024-03-02T06:01:35;31.70;;;17.70;;
84345;SDS011;74709;53.128;18.020;2024-03-02T06:02:39;33.80;;;17.80;;
84345;SDS011;74709;53.128;18.020;2024-03-02T06:03:42;35.40;;;19.40;;
84345;SDS011;74709;53.128;18.020;2024-03-02T06:04:43;33.30;;;17.90;;